Time;durP1;ratioP1;P1;durP2;ratioP2;P2;SDS_P1;SDS_P2;PMS_P1;PMS_P2;Temp;Humidity;BMP_temperature;BMP_pressure;BME280_temperature;BME280_humidity;BME280_pressure;Samples;Min_cycle;Max_cycle;Signal;HPM_P1;HPM_P2
2020/12/09 00:03:12;;;;;;;4.60;2.73;;;20.20;58.90;;;;;;15632699;28;20048;-58
2020/12/09 00:10:42;;;;;;;5.23;2.33;;;20.10;59.00;;;;;;15632256;28;20437;-58
2020/12/09 00:18:13;;;;;;;5.30;2.97;;;20.10;59.00;;;;;;15632296;28;20514;-58
2020/12/09 00:25:43;;;;;;;3.33;2.40;;;20.10;59.00;;;;;;15631514;28;20507;-58
2020/12/09 00:33:14;;;;;;;3.57;2.30;;;20.10;59.00;;;;;;15631200;28;20063;-58
2020/12/09 00:40:44;;;;;;;3.55;2.38;;;20.00;59.00;;;;;;15630978;28;20522;-58
2020/12/09 00:48:15;;;;;;;3.33;2.13;;;20.10;59.00;;;;;;15631097;28;20144;-58
2020/12/09 00:55:45;;;;;;;5.00;2.90;;;20.00;59.00;;;;;;15629854;28;20495;-58
2020/12/09 01:03:16;;;;;;;7.37;2.43;;;20.00;59.00;;;;;;15628208;28;20391;-58
2020/12/09 01:10:46;;;;;;;3.67;2.47;;;20.00;59.00;;;;;;15628907;28;20506;-58
2020/12/09 01:18:17;;;;;;;4.18;2.30;;;20.10;59.10;;;;;;15629110;28;20037;-58
2020/12/09 01:25:47;;;;;;;4.50;2.33;;;20.00;59.10;;;;;;15629059;28;20521;-58
2020/12/09 01:33:18;;;;;;;3.80;2.00;;;20.00;59.20;;;;;;15627642;28;20079;-58
2020/12/09 01:40:48;;;;;;;4.33;2.10;;;20.00;59.50;;;;;;15627783;28;20865;-58
2020/12/09 01:48:19;;;;;;;3.13;2.17;;;20.00;59.60;;;;;;15627857;28;20407;-58
2020/12/09 01:55:50;;;;;;;4.18;1.98;;;20.00;59.40;;;;;;15626651;28;20467;-58
2020/12/09 02:03:20;;;;;;;2.57;2.07;;;20.00;59.20;;;;;;15625708;28;20546;-58
2020/12/09 02:11:05;;;;;;;3.03;2.25;;;20.00;59.30;;;;;;15625483;28;20476;-58
2020/12/09 02:18:35;;;;;;;3.13;2.00;;;20.00;59.30;;;;;;15626355;28;20491;-58
2020/12/09 02:26:06;;;;;;;3.17;2.17;;;20.00;59.40;;;;;;15624582;28;20040;-58
2020/12/09 04:05:41;;;;;;;3.65;2.50;;;19.90;59.70;;;;;;16724801;22;20067;-60
2020/12/09 04:13:11;;;;;;;3.37;1.97;;;19.90;59.50;;;;;;15632371;28;20035;-59
2020/12/09 04:20:42;;;;;;;4.13;2.17;;;19.90;59.40;;;;;;15631784;28;20448;-59
2020/12/09 04:28:12;;;;;;;2.43;1.67;;;20.00;59.30;;;;;;15631623;28;20105;-59
2020/12/09 04:35:43;;;;;;;2.97;1.80;;;19.90;59.30;;;;;;15631577;28;20514;-59
2020/12/09 04:43:13;;;;;;;2.85;1.90;;;19.90;59.40;;;;;;15631525;28;20534;-59
2020/12/09 04:51:21;;;;;;;3.45;2.15;;;19.90;59.40;;;;;;15630472;28;20048;-59
2020/12/09 04:58:55;;;;;;;2.40;1.85;;;19.90;59.30;;;;;;15630605;28;20104;-59
2020/12/09 05:06:28;;;;;;;6.63;2.30;;;19.80;59.30;;;;;;15629217;28;20029;-59
2020/12/09 05:13:59;;;;;;;2.45;1.80;;;19.80;59.60;;;;;;15628934;28;20060;-59
2020/12/09 05:21:33;;;;;;;2.95;1.80;;;19.80;60.00;;;;;;15629341;28;20025;-59
2020/12/09 05:29:08;;;;;;;2.60;1.50;;;19.80;60.10;;;;;;15628922;28;20029;-60
2020/12/09 05:36:52;;;;;;;12.40;9.07;;;19.80;60.50;;;;;;15629230;28;20124;-59
2020/12/09 05:44:24;;;;;;;8.13;5.75;;;19.80;60.40;;;;;;15626427;28;20104;-59
2020/12/09 05:52:15;;;;;;;8.60;6.18;;;19.90;60.20;;;;;;15627689;28;20029;-59
2020/12/09 05:59:48;;;;;;;4.60;2.80;;;19.90;60.20;;;;;;15627343;28;20036;-59
2020/12/09 06:07:20;;;;;;;5.80;3.45;;;19.90;60.00;;;;;;15626349;28;20487;-59
2020/12/09 06:15:11;;;;;;;5.63;2.75;;;19.90;59.90;;;;;;15628045;28;20029;-61
2020/12/09 06:22:42;;;;;;;4.93;1.73;;;19.90;60.00;;;;;;15608365;28;20021;-61
2020/12/09 06:30:12;;;;;;;5.40;2.60;;;19.90;60.00;;;;;;15633466;28;20029;-61
2020/12/09 06:38:09;;;;;;;4.53;3.10;;;19.90;60.10;;;;;;15624890;28;20459;-61
2020/12/09 06:45:41;;;;;;;2.60;1.70;;;19.90;60.00;;;;;;15627687;28;20123;-60
2020/12/09 06:53:19;;;;;;;12.25;8.15;;;20.00;60.10;;;;;;15625896;28;20479;-60
2020/12/09 07:01:09;;;;;;;9.88;7.13;;;19.90;56.90;;;;;;15625859;28;20041;-59
2020/12/09 07:08:44;;;;;;;14.65;8.63;;;19.80;57.00;;;;;;15607517;28;20045;-58
2020/12/09 07:16:15;;;;;;;10.05;5.93;;;19.80;57.70;;;;;;15624879;28;20052;-59
2020/12/09 07:23:45;;;;;;;7.97;4.65;;;19.90;58.00;;;;;;15623017;28;20033;-60
2020/12/09 07:31:16;;;;;;;9.68;5.82;;;19.90;58.00;;;;;;15623479;28;20476;-59
2020/12/09 07:38:47;;;;;;;11.00;5.40;;;19.90;58.20;;;;;;15622478;28;20043;-60
2020/12/09 07:46:17;;;;;;;10.60;5.22;;;19.90;58.50;;;;;;15624094;28;20026;-58
2020/12/09 07:53:48;;;;;;;9.87;4.47;;;19.90;58.50;;;;;;15622010;28;20029;-59
2020/12/09 08:01:28;;;;;;;9.00;4.03;;;19.90;59.10;;;;;;15622057;28;21053;-59
2020/12/09 08:09:11;;;;;;;7.40;3.85;;;19.90;59.60;;;;;;15624249;28;20394;-60
2020/12/09 08:16:42;;;;;;;8.52;4.03;;;19.90;59.70;;;;;;15632587;28;20021;-59
2020/12/09 08:24:13;;;;;;;13.53;5.67;;;20.00;59.50;;;;;;15631837;28;20029;-59
2020/12/09 08:31:43;;;;;;;8.75;4.97;;;20.10;58.70;;;;;;15631626;28;20061;-60
2020/12/09 08:39:14;;;;;;;8.83;4.53;;;20.00;58.50;;;;;;15631712;28;20029;-59
2020/12/09 08:46:44;;;;;;;7.00;3.97;;;20.00;58.90;;;;;;15631191;28;20108;-59
2020/12/09 08:54:15;;;;;;;8.00;4.20;;;20.00;59.10;;;;;;15630407;28;20026;-59
2020/12/09 09:01:45;;;;;;;5.83;3.60;;;20.00;59.30;;;;;;15630366;28;21037;-59
2020/12/09 09:09:16;;;;;;;5.33;3.70;;;20.00;59.30;;;;;;15629594;28;20488;-60
2020/12/09 09:16:46;;;;;;;4.83;3.30;;;20.00;59.40;;;;;;15628988;28;20026;-60
2020/12/09 09:24:17;;;;;;;8.87;3.50;;;20.10;59.40;;;;;;15628579;28;20099;-59
2020/12/09 09:31:47;;;;;;;8.77;3.20;;;20.10;59.60;;;;;;15629612;28;21030;-60
2020/12/09 09:39:18;;;;;;;8.48;3.15;;;20.10;59.70;;;;;;15629798;28;20456;-60
2020/12/09 09:46:48;;;;;;;5.82;3.00;;;20.10;59.80;;;;;;15628290;28;20033;-60
2020/12/09 09:54:20;;;;;;;32.92;17.58;;;20.10;59.70;;;;;;15627375;28;20091;-59
2020/12/09 10:01:53;;;;;;;39.08;18.90;;;20.10;59.60;;;;;;15651444;22;20429;-60
2020/12/09 10:09:24;;;;;;;29.30;14.98;;;20.20;59.70;;;;;;15627110;28;20469;-61
2020/12/09 10:16:58;;;;;;;38.05;21.15;;;20.20;60.20;;;;;;15626140;28;20065;-60
2020/12/09 10:24:28;;;;;;;39.78;19.75;;;20.20;60.00;;;;;;15625584;28;20476;-59
2020/12/09 10:31:59;;;;;;;24.75;13.25;;;20.20;59.80;;;;;;15625285;28;20025;-60
2020/12/09 10:39:30;;;;;;;21.27;10.90;;;20.20;59.80;;;;;;15624195;28;20034;-60
2020/12/09 10:47:01;;;;;;;17.80;9.05;;;20.20;59.70;;;;;;15624058;28;20040;-60
2020/12/09 10:54:32;;;;;;;17.33;8.20;;;20.20;59.60;;;;;;15623473;28;20026;-60
2020/12/09 11:02:02;;;;;;;15.00;7.47;;;20.20;59.60;;;;;;15622822;28;20045;-60
2020/12/09 11:09:33;;;;;;;14.18;5.57;;;20.20;59.60;;;;;;15605316;28;20117;-60
2020/12/09 11:17:04;;;;;;;11.95;5.20;;;20.30;59.50;;;;;;15623463;28;20029;-60
2020/12/09 11:24:35;;;;;;;8.80;4.15;;;20.30;59.20;;;;;;15622414;28;20017;-60
2020/12/09 11:32:06;;;;;;;11.52;4.25;;;20.30;59.10;;;;;;15622133;28;20025;-60
2020/12/09 11:39:36;;;;;;;7.72;4.22;;;20.30;58.90;;;;;;15621927;28;20029;-59
2020/12/09 11:47:06;;;;;;;9.57;3.80;;;20.30;58.90;;;;;;15629574;28;20040;-60
2020/12/09 11:54:37;;;;;;;7.57;3.17;;;20.30;58.90;;;;;;15633674;28;20022;-60
2020/12/09 12:02:07;;;;;;;5.87;3.00;;;20.20;58.90;;;;;;15632927;28;20037;-60
2020/12/09 12:09:38;;;;;;;6.23;2.93;;;20.20;58.90;;;;;;15633098;28;20032;-60
2020/12/09 12:17:09;;;;;;;16.00;7.27;;;20.20;58.90;;;;;;15614485;28;21081;-59
2020/12/09 12:24:40;;;;;;;10.73;5.15;;;20.20;57.30;;;;;;15632177;28;20018;-60
2020/12/09 12:32:11;;;;;;;8.35;4.25;;;20.10;56.70;;;;;;15631233;28;20403;-59
2020/12/09 12:39:41;;;;;;;6.03;3.20;;;20.20;57.20;;;;;;15631484;28;20499;-59
2020/12/09 12:47:12;;;;;;;8.40;2.95;;;20.20;57.60;;;;;;15631574;28;20494;-58
2020/12/09 12:54:43;;;;;;;7.67;2.50;;;20.20;57.30;;;;;;15630324;28;20048;-57
2020/12/09 13:02:14;;;;;;;4.70;2.25;;;20.20;57.30;;;;;;15630578;28;20033;-58
2020/12/09 13:09:44;;;;;;;4.97;2.57;;;20.20;57.40;;;;;;15630798;28;20108;-58
2020/12/09 13:17:18;;;;;;;5.07;2.20;;;20.20;57.50;;;;;;15629293;28;20036;-58
2020/12/09 13:24:49;;;;;;;4.78;2.17;;;20.20;57.60;;;;;;15629076;28;20802;-59
2020/12/09 13:32:19;;;;;;;6.43;4.00;;;20.20;57.70;;;;;;15628678;28;20025;-62
2020/12/09 13:39:50;;;;;;;8.97;5.53;;;20.20;57.90;;;;;;15627438;28;20468;-62
2020/12/09 13:47:20;;;;;;;11.38;5.45;;;20.20;57.80;;;;;;15631276;28;20030;-59
2020/12/09 13:54:51;;;;;;;5.80;4.13;;;20.20;57.90;;;;;;15626686;28;20029;-61
2020/12/09 14:02:21;;;;;;;7.45;4.10;;;20.20;58.70;;;;;;15626070;28;20079;-61
2020/12/09 14:09:53;;;;;;;6.03;3.27;;;20.20;58.60;;;;;;15625307;28;20029;-61
2020/12/09 14:17:24;;;;;;;5.30;3.17;;;20.20;58.70;;;;;;15625240;28;20027;-60
2020/12/09 14:24:54;;;;;;;5.22;3.42;;;20.10;58.90;;;;;;15624926;28;20064;-61
2020/12/09 14:32:25;;;;;;;4.85;2.13;;;20.20;59.00;;;;;;15625288;28;20027;-61
2020/12/09 14:39:56;;;;;;;5.00;2.97;;;20.20;59.30;;;;;;15624561;28;20033;-62
2020/12/09 14:47:26;;;;;;;5.47;2.60;;;20.20;59.20;;;;;;15623770;28;20585;-61
2020/12/09 14:54:57;;;;;;;5.60;2.80;;;20.20;59.30;;;;;;15623371;28;20152;-61
2020/12/09 15:02:29;;;;;;;5.33;3.10;;;20.20;59.50;;;;;;15622956;28;20476;-61
2020/12/09 15:10:00;;;;;;;4.38;2.40;;;20.20;59.50;;;;;;15623042;28;20088;-61
2020/12/09 15:17:31;;;;;;;6.00;2.20;;;20.20;59.50;;;;;;15623492;28;20042;-61
2020/12/09 15:25:01;;;;;;;7.93;5.85;;;20.20;59.50;;;;;;15635616;28;20112;-59
2020/12/09 15:32:32;;;;;;;9.27;6.82;;;20.20;58.10;;;;;;15635530;28;20056;-59
2020/12/09 15:40:05;;;;;;;7.53;4.75;;;20.10;58.20;;;;;;15634936;28;20030;-61
2020/12/09 15:47:40;;;;;;;7.05;4.43;;;20.00;58.70;;;;;;15616649;28;20030;-59
2020/12/09 15:55:12;;;;;;;6.80;4.43;;;20.00;58.80;;;;;;15616138;28;20030;-59
2020/12/09 16:02:43;;;;;;;5.63;3.97;;;20.10;58.90;;;;;;15658659;22;20503;-60
2020/12/09 16:10:13;;;;;;;7.88;3.85;;;20.00;58.90;;;;;;15633540;28;20048;-60
2020/12/09 16:17:44;;;;;;;4.95;3.22;;;20.00;58.90;;;;;;15615929;28;20025;-60
2020/12/09 16:25:15;;;;;;;6.10;3.30;;;20.00;59.00;;;;;;15633102;28;20057;-60
2020/12/09 16:32:46;;;;;;;4.70;3.10;;;20.00;59.00;;;;;;15631988;28;20033;-61
2020/12/09 16:40:17;;;;;;;5.35;3.50;;;20.00;59.10;;;;;;15631838;28;20029;-61
2020/12/09 16:47:47;;;;;;;5.00;3.17;;;20.00;59.30;;;;;;15631680;28;20509;-61
2020/12/09 16:55:18;;;;;;;5.87;2.87;;;20.00;59.50;;;;;;15630306;28;20109;-60
2020/12/09 17:02:52;;;;;;;4.45;2.88;;;20.00;59.60;;;;;;15612061;28;20056;-60
2020/12/09 17:10:22;;;;;;;5.60;3.63;;;20.10;59.40;;;;;;15629614;28;20022;-60
2020/12/09 17:17:53;;;;;;;5.20;3.10;;;20.10;59.60;;;;;;15611211;28;20079;-61
2020/12/09 17:25:24;;;;;;;4.50;2.93;;;20.10;59.50;;;;;;15629026;28;20037;-61
2020/12/09 17:32:55;;;;;;;5.35;2.90;;;20.20;59.60;;;;;;15628342;28;20030;-61
2020/12/09 17:40:25;;;;;;;4.75;3.30;;;20.20;59.70;;;;;;15627840;28;20483;-60
2020/12/09 17:47:56;;;;;;;5.77;4.30;;;20.20;59.70;;;;;;15627358;28;20167;-61
2020/12/09 17:55:27;;;;;;;6.63;5.53;;;20.30;59.50;;;;;;15627216;28;20510;-61
2020/12/09 18:02:57;;;;;;;5.93;3.17;;;20.30;59.60;;;;;;15627005;28;20044;-61
2020/12/09 18:10:27;;;;;;;6.67;4.87;;;20.30;59.50;;;;;;15626955;28;20568;-61
2020/12/09 18:17:58;;;;;;;7.07;4.53;;;20.30;59.40;;;;;;15625625;28;20479;-62
2020/12/09 18:25:28;;;;;;;3.72;2.53;;;20.30;59.40;;;;;;15624960;28;20021;-61
2020/12/09 18:32:59;;;;;;;7.60;4.87;;;20.30;59.40;;;;;;15624533;28;20061;-61
2020/12/09 18:40:30;;;;;;;6.63;3.72;;;20.30;59.50;;;;;;15626110;28;20032;-61
2020/12/09 18:48:00;;;;;;;5.67;2.80;;;20.30;59.50;;;;;;15624023;28;20030;-61
2020/12/09 18:55:31;;;;;;;4.30;3.43;;;20.30;59.40;;;;;;15623352;28;20443;-61
2020/12/09 19:03:02;;;;;;;6.40;3.47;;;20.30;59.10;;;;;;15623205;28;20167;-61
2020/12/09 19:10:33;;;;;;;6.35;5.05;;;20.30;59.20;;;;;;15624087;28;20164;-63
2020/12/09 19:18:03;;;;;;;4.43;2.83;;;20.30;59.30;;;;;;15622707;28;20122;-63
2020/12/09 19:25:34;;;;;;;8.10;6.67;;;20.30;59.50;;;;;;15622976;28;20022;-67
2020/12/09 19:33:06;;;;;;;13.33;10.47;;;20.30;59.70;;;;;;15604681;28;20519;-61
2020/12/09 19:40:36;;;;;;;17.33;13.50;;;20.30;59.60;;;;;;15623114;28;20491;-62
2020/12/09 19:48:07;;;;;;;13.37;10.13;;;20.20;55.80;;;;;;15622251;28;20029;-63
2020/12/09 19:55:37;;;;;;;11.83;8.73;;;20.20;57.50;;;;;;15622041;28;20026;-64
2020/12/09 20:03:08;;;;;;;15.67;9.83;;;20.20;57.30;;;;;;15621418;28;20476;-63
2020/12/09 20:10:39;;;;;;;12.32;8.23;;;20.20;57.50;;;;;;15632874;28;20037;-63
2020/12/09 20:18:09;;;;;;;13.07;9.90;;;20.20;57.60;;;;;;15632579;28;20026;-63
2020/12/09 20:25:40;;;;;;;12.17;9.07;;;20.20;57.70;;;;;;15634126;28;20121;-63
2020/12/09 20:33:11;;;;;;;14.32;9.90;;;20.20;57.80;;;;;;15632112;28;20802;-63
2020/12/09 20:40:41;;;;;;;11.10;8.15;;;20.10;58.00;;;;;;15631954;28;20029;-63
2020/12/09 20:48:12;;;;;;;26.08;17.83;;;20.10;58.20;;;;;;15637690;28;20071;-61
2020/12/09 20:55:42;;;;;;;23.27;18.17;;;20.20;58.40;;;;;;15673027;28;20033;-61
2020/12/09 21:03:13;;;;;;;18.73;15.03;;;20.10;58.60;;;;;;15646507;28;20480;-61
2020/12/09 21:10:43;;;;;;;13.40;7.30;;;20.20;58.80;;;;;;15631844;28;20022;-61
2020/12/09 21:18:14;;;;;;;9.97;7.03;;;20.20;58.70;;;;;;15641735;28;20029;-62
2020/12/09 21:25:44;;;;;;;9.30;5.80;;;20.30;58.50;;;;;;15632893;28;20802;-60
2020/12/09 21:33:15;;;;;;;12.07;7.10;;;20.30;58.40;;;;;;15629405;28;20480;-60
2020/12/09 21:40:45;;;;;;;9.77;6.30;;;20.20;58.40;;;;;;15627749;28;20044;-60
2020/12/09 21:48:16;;;;;;;9.30;7.20;;;20.20;58.40;;;;;;15627609;28;20041;-61
2020/12/09 21:55:46;;;;;;;9.82;6.55;;;20.20;58.40;;;;;;15626945;28;20499;-61
2020/12/09 22:03:17;;;;;;;10.07;6.80;;;20.10;58.50;;;;;;15626534;28;20041;-61
2020/12/09 22:10:47;;;;;;;10.10;7.87;;;20.10;58.50;;;;;;15627729;28;20033;-60
2020/12/09 22:18:19;;;;;;;11.75;6.95;;;20.10;58.50;;;;;;15626842;28;20480;-59
2020/12/09 22:25:52;;;;;;;9.60;5.68;;;20.00;58.60;;;;;;15626014;28;20061;-60
2020/12/09 22:33:22;;;;;;;15.13;11.05;;;20.00;59.10;;;;;;15624748;28;20030;-59
2020/12/09 22:40:53;;;;;;;13.30;8.90;;;20.00;58.20;;;;;;15606674;28;20025;-61
2020/12/09 22:48:23;;;;;;;11.73;8.60;;;19.90;58.20;;;;;;15606408;28;20460;-61
2020/12/09 22:55:54;;;;;;;13.30;8.60;;;19.90;58.20;;;;;;15630714;28;20022;-61
2020/12/09 23:03:24;;;;;;;11.63;8.17;;;19.90;58.20;;;;;;15656989;28;20475;-61
2020/12/09 23:10:55;;;;;;;10.90;8.13;;;19.90;58.20;;;;;;15625908;28;20143;-61
2020/12/09 23:18:26;;;;;;;13.32;6.40;;;19.90;58.30;;;;;;15623458;28;20049;-61
2020/12/09 23:25:56;;;;;;;14.50;10.85;;;19.90;58.30;;;;;;15604911;28;20036;-61
2020/12/09 23:33:27;;;;;;;13.17;8.73;;;19.90;58.40;;;;;;15622943;28;20065;-61
2020/12/09 23:40:57;;;;;;;8.48;5.80;;;20.00;58.40;;;;;;15627002;28;20514;-61
2020/12/09 23:48:28;;;;;;;10.33;6.73;;;20.00;58.40;;;;;;15634402;28;20480;-61
2020/12/09 23:55:58;;;;;;;8.53;6.07;;;20.00;58.40;;;;;;15634035;28;20555;-61
